Flight Track Log - Related Links

Times and Time Zones

All times are in EDT time to prevent confusion due to time zone crossing. See the SWA3147 flight status page for this flight to view local times or setup timezone preferences in your user account.

Time Position Orientation Groundspeed Altitude Reporting Facility
EDT Latitude Longitude Course Direction KTS MPH feet Rate Location/Type
Sat 06:19:18 AM 27.9667 -82.5500 180° South 154 177 900  Level Tampa TRACON
Sat 06:19:54 AM 27.9500 -82.5500 180° South 176 203 2,000 2,279 Climbing Tampa TRACON
Sat 06:21:27 AM 27.8700 -82.5992 209° Southwest 212 244 5,800 2,489 Climbing Jacksonville Center
Sat 06:22:09 AM 27.9014 -82.6447 308° West 241 277 7,600 2,824 Climbing Miami Center
Sat 06:23:09 AM 27.9789 -82.6400 North 275 316 10,600 2,430 Climbing Miami Center
Sat 06:24:10 AM 28.0692 -82.6331 North 321 369 12,500 2,579 Climbing Miami Center
Sat 06:25:10 AM 28.1675 -82.6175 North 345 397 15,800 3,025 Climbing Miami Center
Sat 06:26:11 AM 28.2539 -82.5764 23° Northeast 355 409 18,600 2,777 Climbing Miami Center
Sat 06:27:11 AM 28.3656 -82.5689 North 367 422 21,400 2,479 Climbing Miami Center
Sat 06:28:12 AM 28.4722 -82.5653 North 374 430 23,600 1,934 Climbing Miami Center
Sat 06:29:12 AM 28.5878 -82.5611 North 403 464 25,300 1,289 Climbing Miami Center
Sat 06:30:13 AM 28.7069 -82.5558 North 426 490 26,200 1,140 Climbing Miami Center
Sat 06:31:13 AM 28.8272 -82.5514 North 428 493 27,600 1,785 Climbing Miami Center
Sat 06:32:14 AM 28.9514 -82.5456 North 442 509 29,800 2,262 Climbing Miami Center
Sat 06:33:15 AM 29.0706 -82.5428 North 436 502 32,200 1,835 Climbing Miami Center
Sat 06:34:15 AM 29.1889 -82.5319 North 429 494 33,500 1,041 Climbing Miami Center
Sat 06:35:16 AM 29.3089 -82.4936 16° North 445 512 34,300 1,041 Climbing Miami Center
Sat 06:36:16 AM 29.4306 -82.4561 15° North 452 520 35,600 1,388 Climbing Miami Center
Sat 06:37:17 AM 29.5767 -82.4114 15° North 454 522 37,100 1,328 Climbing Miami Center
Sat 06:38:18 AM 29.6975 -82.3753 15° North 455 524 38,300 942 Climbing Miami Center
Sat 06:39:18 AM 29.8178 -82.3378 15° North 453 521 39,000 347 Climbing Miami Center
Sat 06:40:19 AM 29.9392 -82.3031 14° North 452 520 39,000  Level Miami Center
Sat 06:41:19 AM 30.0514 -82.2642 17° North 452 520 39,000  Level Miami Center
Sat 06:42:20 AM 30.1714 -82.2300 14° North 447 514 39,000  Level Miami Center
Sat 06:43:21 AM 30.2947 -82.1917 15° North 448 516 39,000  Level Miami Center
Sat 06:44:27 AM 30.4439 -82.1431 16° North 448 516 39,000 -238 Level Jacksonville Center
Sat 06:45:27 AM 30.5647 -82.1133 12° North 448 516 38,500 -750 Descending Jacksonville Center
Sat 06:46:27 AM 30.6856 -82.0736 16° North 448 516 37,500 -750 Descending Jacksonville Center
Sat 06:47:27 AM 30.8128 -82.0339 15° North 453 521 37,000 -250 Descending Jacksonville Center
Sat 06:48:27 AM 30.9358 -81.9989 14° North 453 521 37,000  Level Jacksonville Center
Sat 06:49:27 AM 31.0606 -81.9564 16° North 453 521 37,000  Level Jacksonville Center
Sat 06:50:27 AM 31.1814 -81.9211 14° North 449 517 37,000  Level Jacksonville Center
Sat 06:51:27 AM 31.3022 -81.8836 15° North 449 517 37,000  Level Jacksonville Center
Sat 06:52:27 AM 31.4128 -81.8483 15° North 454 522 37,000  Level Jacksonville Center
Sat 06:53:27 AM 31.5458 -81.8028 16° North 447 514 37,000  Level Jacksonville Center
Sat 06:54:27 AM 31.6667 -81.7672 14° North 447 514 37,000  Level Jacksonville Center
Sat 06:55:27 AM 31.7750 -81.7317 16° North 453 521 37,000  Level Jacksonville Center
Sat 06:56:27 AM 31.9083 -81.6908 15° North 447 514 37,000  Level Jacksonville Center
Sat 06:57:27 AM 32.0311 -81.6525 15° North 457 526 37,000  Level Jacksonville Center
Sat 06:58:27 AM 32.1392 -81.6192 15° North 445 512 37,000  Level Jacksonville Center
Sat 06:59:27 AM 32.2744 -81.5756 15° North 445 512 37,000  Level Jacksonville Center
Sat 07:00:27 AM 32.3972 -81.5344 16° North 456 525 37,000  Level Jacksonville Center
Sat 07:01:27 AM 32.5053 -81.4811 23° Northeast 457 526 37,000  Level Jacksonville Center
Sat 07:02:27 AM 32.6253 -81.3881 33° Northeast 469 540 37,000  Level Jacksonville Center
Sat 07:03:27 AM 32.7347 -81.3022 33° Northeast 477 549 37,000  Level Jacksonville Center
Sat 07:04:27 AM 32.8422 -81.2161 34° Northeast 477 549 37,000  Level Jacksonville Center
Sat 07:05:27 AM 32.9497 -81.1325 33° Northeast 477 549 37,000  Level Jacksonville Center
Sat 07:06:27 AM 33.0592 -81.0486 33° Northeast 472 543 37,000  Level Jacksonville Center
Sat 07:07:27 AM 33.1683 -80.9619 34° Northeast 472 543 37,000  Level Jacksonville Center
Sat 07:08:27 AM 33.2778 -80.8775 33° Northeast 472 543 37,000  Level Jacksonville Center
Sat 07:09:27 AM 33.3869 -80.7906 34° Northeast 472 543 37,000  Level Jacksonville Center
Sat 07:10:27 AM 33.4981 -80.7033 33° Northeast 472 543 37,000  Level Jacksonville Center
Sat 07:11:27 AM 33.5969 -80.6258 33° Northeast 477 549 37,000  Level Jacksonville Center
Sat 07:12:27 AM 33.7100 -80.5356 34° Northeast 477 549 37,000  Level Jacksonville Center
Sat 07:13:27 AM 33.8211 -80.4478 33° Northeast 477 549 37,000  Level Jacksonville Center
Sat 07:14:27 AM 33.9319 -80.3569 34° Northeast 477 549 37,000  Level Jacksonville Center
Sat 07:15:27 AM 34.0408 -80.2711 33° Northeast 477 549 37,000  Level Jacksonville Center
Sat 07:16:27 AM 34.1494 -80.1800 35° Northeast 477 549 37,000  Level Jacksonville Center
Sat 07:17:27 AM 34.2600 -80.0886 34° Northeast 477 549 37,000  Level Jacksonville Center
Sat 07:18:27 AM 34.3708 -79.9997 33° Northeast 477 549 37,000 -50 Level Jacksonville Center
Sat 07:19:27 AM 34.4814 -79.9103 34° Northeast 477 549 36,900 -640 Descending Jacksonville Center
Sat 07:20:57 AM 34.6519 -79.7653 35° Northeast 464 534 35,400 -755 Descending Washington Center
Sat 07:21:58 AM 34.7594 -79.6722 35° Northeast 464 534 35,000 -198 Descending Washington Center
Sat 07:22:58 AM 34.8731 -79.5842 32° Northeast 470 541 35,000  Level Washington Center
Sat 07:23:58 AM 34.9822 -79.4958 34° Northeast 475 547 35,000  Level Washington Center
Sat 07:24:56 AM 35.0917 -79.4047 34° Northeast 475 547 35,000  Level Washington Center
Sat 07:25:58 AM 35.2031 -79.3133 34° Northeast 475 547 35,000  Level Washington Center
Sat 07:26:58 AM 35.3122 -79.2242 34° Northeast 475 547 35,000  Level Washington Center
Sat 07:27:59 AM 35.4256 -79.1300 34° Northeast 489 563 35,000  Level Washington Center
Sat 07:28:58 AM 35.5325 -79.0403 34° Northeast 476 548 35,000  Level Washington Center
Sat 07:29:58 AM 35.6439 -78.9453 35° Northeast 476 548 35,000  Level Washington Center
Sat 07:30:58 AM 35.7528 -78.8553 34° Northeast 476 548 35,000  Level Washington Center
Sat 07:31:56 AM 35.8639 -78.7600 35° Northeast 476 548 35,000  Level Washington Center
Sat 07:32:57 AM 35.9706 -78.6667 35° Northeast 476 548 35,000 -390 Level Washington Center
Sat 07:33:59 AM 36.0836 -78.5733 34° Northeast 476 548 34,200 -850 Descending Washington Center
Sat 07:34:57 AM 36.1922 -78.4797 35° Northeast 476 548 33,300 -857 Descending Washington Center
Sat 07:35:58 AM 36.2903 -78.3931 35° Northeast 476 548 32,500 -900 Descending Washington Center
Sat 07:36:57 AM 36.4008 -78.2964 35° Northeast 481 554 31,500 -958 Descending Washington Center
Sat 07:37:57 AM 36.5136 -78.1994 35° Northeast 481 554 30,600 -984 Descending Washington Center
Sat 07:38:59 AM 36.6139 -78.1044 37° Northeast 474 545 29,500 -1,050 Descending Washington Center
Sat 07:39:57 AM 36.7200 -78.0147 34° Northeast 463 533 28,500 -1,000 Descending Washington Center
Sat 07:40:59 AM 36.8197 -77.9269 35° Northeast 452 520 27,500 -750 Descending Washington Center
Sat 07:41:57 AM 36.9236 -77.8339 36° Northeast 452 520 27,000 -252 Descending Washington Center
Sat 07:42:58 AM 37.0275 -77.7433 35° Northeast 452 520 27,000  Level Washington Center
Sat 07:43:57 AM 37.1353 -77.6683 29° Northeast 452 520 27,000  Level Washington Center
Sat 07:44:57 AM 37.2508 -77.6217 18° North 436 502 27,000  Level Washington Center
Sat 07:45:58 AM 37.3664 -77.5725 19° North 431 496 27,000 -787 Level Washington Center
Sat 07:46:59 AM 37.4778 -77.5258 18° North 426 490 25,400 -1,983 Descending Washington Center
Sat 07:47:56 AM 37.5850 -77.4786 19° North 421 484 23,100 -1,210 Descending Washington Center
Sat 07:48:58 AM 37.6878 -77.4367 18° North 402 463 23,000 -49 Descending Washington Center
Sat 07:49:59 AM 37.7906 -77.3919 19° North 397 457 23,000  Level Washington Center
Sat 07:50:59 AM 37.8975 -77.3469 18° North 392 451 23,000 -50 Level Washington Center
Sat 07:51:58 AM 38.0025 -77.2994 20° North 392 451 22,900 -1,250 Descending Washington Center
Sat 07:52:59 AM 38.1158 -77.2544 17° North 392 451 20,500 -2,168 Descending Washington Center
Sat 07:53:57 AM 38.2122 -77.2117 19° North 380 437 18,600 -1,966 Descending Washington Center
Sat 07:54:58 AM 38.3067 -77.1714 19° North 359 413 16,600 -1,785 Descending Washington Center
Sat 07:55:58 AM 38.3950 -77.1203 24° Northeast 348 400 15,000 -1,636 Descending Washington Center
Sat 07:56:59 AM 38.4647 -77.0369 43° Northeast 335 386 13,300 -1,488 Descending Washington Center
Sat 07:57:59 AM 38.5344 -76.9533 43° Northeast 335 386 12,000 -1,169 Descending Washington Center
Sat 07:58:57 AM 38.6022 -76.8747 42° Northeast 330 380 11,000 -1,008 Descending Washington Center
Sat 07:59:58 AM 38.6656 -76.7989 43° Northeast 319 367 10,000 -984 Descending Washington Center
Sat 08:00:59 AM 38.7164 -76.7197 51° Northeast 299 344 9,000 -1,208 Descending Washington Center
Sat 08:02:37 AM 38.7833 -76.5667 61° Northeast 273 314 6,800 -1,253 Descending Potomac TRACON
Sat 08:03:37 AM 38.8333 -76.5167 38° Northeast 265 305 5,700 -1,050 Descending Potomac TRACON
Sat 08:04:37 AM 38.9000 -76.4833 21° North 262 302 4,700 -789 Descending Potomac TRACON
Sat 08:05:31 AM 38.9667 -76.4667 11° North 260 299 4,200 -579 Descending Potomac TRACON
Sat 08:06:31 AM 39.0333 -76.4500 11° North 231 266 3,600 -684 Descending Potomac TRACON
Sat 08:07:25 AM 39.0833 -76.4667 345° North 209 241 2,900 -737 Descending Potomac TRACON
Sat 08:08:25 AM 39.1333 -76.4833 346° North 174 200 2,200 -500 Descending Potomac TRACON
Sat 08:09:25 AM 39.1667 -76.5167 322° Northwest 178 205 1,900 -316 Descending Potomac TRACON
Sat 08:10:19 AM 39.1667 -76.5667 270° West 155 178 1,600 -632 Descending Potomac TRACON
Sat 08:11:19 AM 39.1667 -76.6167 270° West 150 173 700 -900 Descending Potomac TRACON
Sat 08:13:00 AM 39.1667 -76.6667 331° Northwest  Level FlightAware Approximate
Sat 08:20:00 AM 39.1754 -76.6683 331° Northwest  Level Estimated
Sat 08:21:00 AM 39.1754 -76.6683 152° Southeast  Level Estimated
Sat 08:22:00 AM 39.1754 -76.6683 339° North  Level Estimated
Sat 08:23:00 AM 39.1754 -76.6683 152° Southeast  Level Estimated

Login

Don't have an account? Register now (free) for customized features, flight alerts, and more!